Time;durP1;ratioP1;P1;durP2;ratioP2;P2;SDS_P1;SDS_P2;PMS_P1;PMS_P2;Temp;Humidity;BMP_temperature;BMP_pressure;BME280_temperature;BME280_humidity;BME280_pressure;Samples;Min_cycle;Max_cycle;Signal;HPM_P1;HPM_P2
2022/11/18 00:02:15;;;;;;;92.60;73.43;;;21.50;58.90;;;;;;4694725;59;21067;-40
2022/11/18 00:07:16;;;;;;;90.72;71.28;;;21.50;58.80;;;;;;4880635;55;21533;-32
2022/11/18 00:17:36;;;;;;;88.22;70.72;;;21.50;58.90;;;;;;4694236;55;21141;-40
2022/11/18 00:22:37;;;;;;;90.05;69.40;;;21.50;58.80;;;;;;4733559;55;21012;-39
2022/11/18 00:27:38;;;;;;;86.32;67.43;;;21.50;59.40;;;;;;4732142;55;21471;-43
2022/11/18 00:32:39;;;;;;;83.50;68.53;;;21.50;58.70;;;;;;4718807;55;21060;-40
2022/11/18 00:37:39;;;;;;;85.75;68.03;;;21.50;58.80;;;;;;4748112;55;21004;-46
2022/11/18 00:42:52;;;;;;;86.20;67.78;;;21.50;58.70;;;;;;5000763;55;21017;-41
2022/11/18 00:47:53;;;;;;;86.50;68.80;;;21.50;58.70;;;;;;4695264;55;21073;-45
2022/11/18 00:52:54;;;;;;;85.15;66.45;;;21.50;58.60;;;;;;4820599;55;21142;-47
2022/11/18 00:57:55;;;;;;;84.13;66.55;;;21.50;58.70;;;;;;5169199;55;21067;-42
2022/11/18 01:02:55;;;;;;;82.50;66.95;;;21.50;58.60;;;;;;5119172;55;21581;-29
2022/11/18 01:07:56;;;;;;;85.93;67.25;;;21.50;58.60;;;;;;4817397;55;21048;-44
2022/11/18 01:18:19;;;;;;;81.28;64.85;;;21.50;58.60;;;;;;4693919;55;21068;-41
2022/11/18 01:23:20;;;;;;;82.53;64.78;;;21.50;58.60;;;;;;4695058;59;21111;-42
2022/11/18 01:28:21;;;;;;;79.75;64.18;;;21.50;58.60;;;;;;5162664;55;21028;-44
2022/11/18 01:33:21;;;;;;;81.20;64.82;;;21.50;58.50;;;;;;4772559;55;21060;-44
2022/11/18 01:38:22;;;;;;;79.03;62.83;;;21.50;58.50;;;;;;5070594;55;20999;-43
2022/11/18 01:43:23;;;;;;;77.82;59.85;;;21.50;58.50;;;;;;4896329;55;21080;-46
2022/11/18 01:48:34;;;;;;;79.12;63.10;;;21.50;58.50;;;;;;4719608;55;21011;-48
2022/11/18 01:53:40;;;;;;;80.90;63.47;;;21.50;58.40;;;;;;4819253;55;20988;-43
2022/11/18 01:58:49;;;;;;;75.87;60.20;;;21.50;58.40;;;;;;4715826;55;20993;-42
2022/11/18 02:03:52;;;;;;;74.10;59.15;;;21.50;58.40;;;;;;4694698;55;21092;-44
2022/11/18 02:08:53;;;;;;;77.45;59.85;;;21.50;58.40;;;;;;4743586;55;21072;-45
2022/11/18 02:13:54;;;;;;;76.32;59.72;;;21.50;58.40;;;;;;4836840;55;21016;-42
2022/11/18 02:19:01;;;;;;;74.65;60.70;;;21.50;58.30;;;;;;4837214;55;21052;-41
2022/11/18 02:24:27;;;;;;;75.37;60.05;;;21.40;58.20;;;;;;4910904;55;21088;-45
2022/11/18 02:29:53;;;;;;;77.72;60.63;;;21.50;58.30;;;;;;4736676;55;21036;-43
2022/11/18 02:37:14;;;;;;;74.62;60.17;;;21.50;58.20;;;;;;4912070;55;21521;-43
2022/11/18 02:42:16;;;;;;;78.03;59.42;;;21.50;58.30;;;;;;4724500;55;21079;-42
2022/11/18 02:47:19;;;;;;;71.65;57.53;;;21.50;58.20;;;;;;4731378;55;21013;-40
2022/11/18 02:52:22;;;;;;;74.82;60.75;;;21.50;58.20;;;;;;4978065;55;20996;-44
2022/11/18 02:57:25;;;;;;;69.87;55.45;;;21.50;58.20;;;;;;4694529;59;21000;-42
2022/11/18 03:02:25;;;;;;;71.10;56.20;;;21.50;58.20;;;;;;4707039;55;21132;-42
2022/11/18 03:07:30;;;;;;;71.32;54.95;;;21.50;58.10;;;;;;4791471;55;21000;-42
2022/11/18 03:12:59;;;;;;;73.87;58.22;;;21.50;58.10;;;;;;4730837;55;21076;-46
2022/11/18 03:18:38;;;;;;;71.00;57.65;;;21.50;58.10;;;;;;4777551;55;21012;-44
2022/11/18 03:23:50;;;;;;;70.95;54.90;;;21.50;58.10;;;;;;4844817;55;21072;-42
2022/11/18 03:29:55;;;;;;;69.40;56.80;;;21.50;58.10;;;;;;4695067;55;21019;-44
2022/11/18 03:35:04;;;;;;;70.65;56.05;;;21.50;58.00;;;;;;4719152;55;20993;-44
2022/11/18 03:40:20;;;;;;;67.18;54.70;;;21.50;58.00;;;;;;4695265;55;20969;-40
2022/11/18 03:45:34;;;;;;;66.93;52.83;;;21.50;58.00;;;;;;4826096;55;21012;-42
2022/11/18 03:50:46;;;;;;;67.87;55.03;;;21.50;58.00;;;;;;4782534;55;20992;-30
2022/11/18 03:55:52;;;;;;;64.55;52.80;;;21.50;58.00;;;;;;4862872;55;21056;-43
2022/11/18 04:01:00;;;;;;;65.80;50.97;;;21.50;58.00;;;;;;4727193;55;21116;-48
2022/11/18 04:06:24;;;;;;;66.45;52.08;;;21.40;58.00;;;;;;4730455;55;21087;-44
2022/11/18 04:16:53;;;;;;;66.45;53.08;;;21.50;58.00;;;;;;4694287;55;21028;-45
2022/11/18 04:21:54;;;;;;;62.55;51.50;;;21.40;58.00;;;;;;4694860;59;21004;-44
2022/11/18 04:26:55;;;;;;;63.58;51.08;;;21.40;58.00;;;;;;4730894;55;21004;-42
2022/11/18 04:31:56;;;;;;;62.70;49.20;;;21.40;58.00;;;;;;4771512;55;21040;-44
2022/11/18 04:36:57;;;;;;;63.72;51.10;;;21.50;58.00;;;;;;4695579;55;21546;-43
2022/11/18 04:41:58;;;;;;;63.22;51.03;;;21.50;58.00;;;;;;4846314;55;21000;-43
2022/11/18 04:47:05;;;;;;;59.45;49.20;;;21.40;58.00;;;;;;4718024;55;21012;-44
2022/11/18 04:52:06;;;;;;;60.05;48.30;;;21.40;58.00;;;;;;4834087;55;20996;-43
2022/11/18 04:57:06;;;;;;;59.47;47.88;;;21.40;58.00;;;;;;4694764;59;21012;-44
2022/11/18 05:02:07;;;;;;;60.97;48.42;;;21.40;57.90;;;;;;4862586;55;21101;-47
2022/11/18 05:07:14;;;;;;;57.92;46.83;;;21.40;58.00;;;;;;4861059;55;21080;-42
2022/11/18 05:17:35;;;;;;;58.10;46.33;;;21.40;58.00;;;;;;4693628;59;21490;-42
2022/11/18 05:22:36;;;;;;;61.55;48.05;;;21.40;58.10;;;;;;4928443;55;21020;-44
2022/11/18 05:27:36;;;;;;;57.50;46.88;;;21.40;58.20;;;;;;4775806;55;21021;-37
2022/11/18 05:32:37;;;;;;;57.15;46.28;;;21.40;58.20;;;;;;4859589;55;21012;-42
2022/11/18 05:37:38;;;;;;;59.13;47.40;;;21.40;58.30;;;;;;4863962;55;21080;-39
2022/11/18 05:48:02;;;;;;;59.35;46.33;;;21.40;58.20;;;;;;4694418;55;21075;-34
2022/11/18 05:53:04;;;;;;;55.47;44.88;;;21.40;58.30;;;;;;4695010;59;21605;-48
2022/11/18 05:58:04;;;;;;;54.22;44.15;;;21.40;58.20;;;;;;4693832;59;21020;-44
2022/11/18 06:03:14;;;;;;;55.20;44.15;;;21.40;58.30;;;;;;4719494;55;21024;-45
2022/11/18 06:08:18;;;;;;;54.72;43.75;;;21.40;58.20;;;;;;4694829;55;21076;-41
2022/11/18 06:13:23;;;;;;;53.40;43.85;;;21.40;58.20;;;;;;4718573;55;21000;-43
2022/11/18 06:18:28;;;;;;;53.38;43.30;;;21.40;58.20;;;;;;4693800;59;21039;-41
2022/11/18 06:23:37;;;;;;;58.15;45.12;;;21.40;58.20;;;;;;4780686;55;21056;-51
2022/11/18 06:28:39;;;;;;;52.80;41.72;;;21.40;58.20;;;;;;4694561;59;21123;-46
2022/11/18 06:33:40;;;;;;;51.55;43.72;;;21.40;58.10;;;;;;4784672;55;21067;-48
2022/11/18 06:38:41;;;;;;;52.70;42.35;;;21.40;58.40;;;;;;4696204;55;21092;-44
2022/11/18 06:43:42;;;;;;;55.72;44.85;;;21.40;58.10;;;;;;4773903;55;21024;-42
2022/11/18 06:48:42;;;;;;;53.92;44.78;;;21.40;58.10;;;;;;4694541;59;21048;-43
2022/11/18 06:53:43;;;;;;;54.53;44.40;;;21.40;58.10;;;;;;4694481;59;21605;-43
2022/11/18 06:58:44;;;;;;;56.15;45.38;;;21.40;58.20;;;;;;4899804;55;21068;-44
2022/11/18 07:03:46;;;;;;;57.22;45.50;;;21.40;58.10;;;;;;4694377;59;21092;-46
2022/11/18 07:08:47;;;;;;;56.42;47.00;;;21.40;58.00;;;;;;4695085;59;21012;-46
2022/11/18 07:13:48;;;;;;;55.60;45.83;;;21.40;58.00;;;;;;4760316;55;21024;-45
2022/11/18 07:18:51;;;;;;;58.10;45.67;;;21.40;58.00;;;;;;4695262;59;21004;-46
2022/11/18 07:23:52;;;;;;;57.97;47.15;;;21.40;58.00;;;;;;4752093;55;20996;-42
2022/11/18 07:28:53;;;;;;;56.78;46.42;;;21.40;58.00;;;;;;4838115;55;21008;-47
2022/11/18 07:33:54;;;;;;;59.10;45.80;;;21.40;58.00;;;;;;4694825;59;21024;-46
2022/11/18 07:38:57;;;;;;;59.25;48.05;;;21.40;58.10;;;;;;4694871;59;21506;-43
2022/11/18 07:44:00;;;;;;;59.70;47.55;;;21.40;58.00;;;;;;4719179;55;21024;-44
2022/11/18 07:49:04;;;;;;;63.75;48.78;;;21.40;58.00;;;;;;4695121;59;21007;-44
2022/11/18 07:54:07;;;;;;;59.38;48.58;;;21.40;58.00;;;;;;4694916;59;21704;-46
2022/11/18 07:59:08;;;;;;;59.85;48.33;;;21.40;58.00;;;;;;4712326;55;21008;-47
2022/11/18 08:04:12;;;;;;;66.62;49.13;;;21.50;58.00;;;;;;4693994;59;21096;-39
2022/11/18 08:09:13;;;;;;;63.30;50.60;;;21.50;58.20;;;;;;4727854;55;21051;-47
2022/11/18 08:14:13;;;;;;;62.00;49.35;;;21.60;58.40;;;;;;4714535;55;21148;-33
2022/11/18 08:19:14;;;;;;;61.75;49.08;;;21.60;58.50;;;;;;4695243;59;21046;-42
2022/11/18 08:24:16;;;;;;;69.30;52.15;;;21.70;58.70;;;;;;4695581;55;21036;-36
2022/11/18 08:29:17;;;;;;;62.50;49.90;;;21.70;58.50;;;;;;4694510;59;21161;-34
2022/11/18 08:34:18;;;;;;;63.90;50.58;;;21.70;58.80;;;;;;4724313;55;21639;-34
2022/11/18 08:39:19;;;;;;;66.60;52.25;;;21.80;59.00;;;;;;4775707;55;21006;-44
2022/11/18 08:44:19;;;;;;;70.75;53.05;;;21.80;59.20;;;;;;4694428;57;21560;-35
2022/11/18 08:49:20;;;;;;;69.60;53.05;;;21.90;59.40;;;;;;4698906;55;21012;-41
2022/11/18 08:54:21;;;;;;;66.90;54.45;;;21.90;59.50;;;;;;4703510;55;21506;-42
2022/11/18 08:59:22;;;;;;;72.15;56.15;;;21.90;59.70;;;;;;4694567;59;21008;-47
2022/11/18 09:04:23;;;;;;;71.90;56.92;;;22.00;59.80;;;;;;4694011;55;21311;-32
2022/11/18 09:09:24;;;;;;;71.15;56.05;;;22.00;59.80;;;;;;4755279;55;21024;-36
2022/11/18 09:14:25;;;;;;;74.85;55.78;;;22.00;60.10;;;;;;4697228;55;21477;-44
2022/11/18 09:19:26;;;;;;;72.65;55.03;;;22.00;61.10;;;;;;4694570;57;21087;-45
2022/11/18 09:24:26;;;;;;;74.37;56.78;;;22.00;61.40;;;;;;4694233;59;21032;-47
2022/11/18 09:29:27;;;;;;;74.25;57.33;;;22.10;61.70;;;;;;4694244;57;20988;-44
2022/11/18 09:34:29;;;;;;;76.93;59.83;;;22.10;61.70;;;;;;4694779;59;21079;-44
2022/11/18 09:39:29;;;;;;;73.68;59.40;;;22.10;61.70;;;;;;4694229;59;21510;-39
2022/11/18 09:45:04;;;;;;;79.32;60.55;;;22.10;61.70;;;;;;4694310;59;21032;-45
2022/11/18 09:50:12;;;;;;;79.70;59.65;;;22.10;61.80;;;;;;4729044;55;21052;-40
2022/11/18 09:55:15;;;;;;;84.85;62.72;;;22.10;61.80;;;;;;4757952;55;21130;-37
2022/11/18 10:00:22;;;;;;;88.68;64.60;;;22.20;61.90;;;;;;4743545;55;21012;-49
2022/11/18 10:05:27;;;;;;;90.55;65.75;;;22.20;61.90;;;;;;4689428;59;21096;-41
2022/11/18 10:10:59;;;;;;;83.62;65.43;;;22.20;61.60;;;;;;4689258;55;21594;-33
2022/11/18 10:17:38;;;;;;;92.40;69.43;;;22.20;61.40;;;;;;4714416;55;21111;-43
2022/11/18 10:29:27;;;;;;;94.25;71.60;;;22.10;61.80;;;;;;4695876;55;21071;-45
2022/11/18 10:34:29;;;;;;;99.40;70.62;;;22.10;61.20;;;;;;4698009;55;21032;-49
2022/11/18 10:39:30;;;;;;;100.50;73.95;;;22.10;61.60;;;;;;4692246;59;21016;-47
2022/11/18 10:44:39;;;;;;;104.10;76.10;;;22.10;61.30;;;;;;4700130;55;21004;-46
2022/11/18 10:49:40;;;;;;;95.07;72.45;;;22.10;61.40;;;;;;4693772;55;20988;-50
2022/11/18 10:54:42;;;;;;;104.97;77.20;;;22.10;61.30;;;;;;4729593;55;21036;-44
2022/11/18 10:59:54;;;;;;;103.60;75.47;;;22.10;61.40;;;;;;4693794;59;21015;-40
2022/11/18 11:04:56;;;;;;;96.57;73.65;;;22.20;61.40;;;;;;4705997;55;21028;-39
2022/11/18 11:10:31;;;;;;;100.22;75.68;;;22.20;61.40;;;;;;4693341;59;21040;-41
2022/11/18 11:15:38;;;;;;;93.37;72.75;;;22.20;61.60;;;;;;4730349;55;21069;-27
2022/11/18 11:20:40;;;;;;;99.30;74.47;;;22.20;61.60;;;;;;4717103;55;21054;-39
2022/11/18 11:26:35;;;;;;;98.03;74.05;;;22.20;61.50;;;;;;4714696;55;21533;-46
2022/11/18 11:34:23;;;;;;;102.07;75.15;;;22.30;61.60;;;;;;4704099;55;21107;-29
2022/11/18 11:42:26;;;;;;;99.13;75.93;;;22.20;61.70;;;;;;4710509;55;21490;-39
2022/11/18 11:48:05;;;;;;;96.53;73.30;;;22.20;61.70;;;;;;4725200;55;21008;-37
2022/11/18 11:53:51;;;;;;;96.22;73.10;;;22.20;61.80;;;;;;4721339;55;21083;-43
2022/11/18 12:05:41;;;;;;;96.37;73.20;;;22.20;61.80;;;;;;4694884;59;21048;-48
2022/11/18 12:11:12;;;;;;;93.45;71.25;;;22.20;61.60;;;;;;4747431;55;21569;-42
2022/11/18 12:16:50;;;;;;;94.25;72.80;;;22.10;61.70;;;;;;4694336;59;21007;-44
2022/11/18 12:21:53;;;;;;;92.40;70.82;;;22.10;61.70;;;;;;4694751;59;21007;-48
2022/11/18 12:26:54;;;;;;;101.50;74.60;;;22.10;61.70;;;;;;4693805;59;21507;-34
2022/11/18 12:31:58;;;;;;;93.72;71.65;;;22.10;61.80;;;;;;4694878;59;21606;-34
2022/11/18 12:37:45;;;;;;;96.10;72.62;;;22.10;61.90;;;;;;4705516;55;21032;-42
2022/11/18 12:48:29;;;;;;;95.07;71.72;;;22.20;61.90;;;;;;4694235;55;21132;-46
2022/11/18 12:53:40;;;;;;;94.72;72.80;;;22.10;62.00;;;;;;4715363;55;21008;-45
2022/11/18 12:58:44;;;;;;;93.62;70.95;;;22.20;62.00;;;;;;4693252;55;21028;-46
2022/11/18 13:03:45;;;;;;;91.97;71.28;;;22.20;62.10;;;;;;4743217;55;21505;-43
2022/11/18 13:08:53;;;;;;;92.72;71.95;;;22.10;62.10;;;;;;4696378;55;21063;-45
2022/11/18 13:19:22;;;;;;;97.30;72.87;;;22.10;62.00;;;;;;4694606;55;21020;-44
2022/11/18 13:24:22;;;;;;;85.50;67.53;;;22.00;62.00;;;;;;4711292;55;21068;-44
2022/11/18 13:30:05;;;;;;;92.50;71.28;;;22.00;62.00;;;;;;4720286;55;21620;-42
2022/11/18 13:35:20;;;;;;;93.47;71.20;;;22.00;61.90;;;;;;4723511;55;21040;-42
2022/11/18 13:40:38;;;;;;;89.47;69.15;;;22.00;61.80;;;;;;4920463;55;21447;-42
2022/11/18 13:45:40;;;;;;;87.80;67.70;;;21.90;62.40;;;;;;4875019;55;21024;-43
2022/11/18 13:50:51;;;;;;;88.70;68.00;;;21.90;61.70;;;;;;5012489;55;21081;-46
2022/11/18 13:56:33;;;;;;;87.82;67.75;;;21.90;61.70;;;;;;5003672;55;21478;-45
2022/11/18 14:01:34;;;;;;;91.45;70.22;;;21.90;61.60;;;;;;4849495;55;21043;-42
2022/11/18 14:06:37;;;;;;;85.30;68.22;;;21.90;61.60;;;;;;4748552;55;21063;-43
2022/11/18 14:11:43;;;;;;;82.05;65.50;;;21.90;61.60;;;;;;4814065;55;20981;-49
2022/11/18 14:16:44;;;;;;;84.13;66.25;;;21.90;61.60;;;;;;4694518;59;21022;-46
2022/11/18 14:21:45;;;;;;;81.60;66.00;;;21.90;61.50;;;;;;4755465;55;21000;-51
2022/11/18 14:26:46;;;;;;;83.90;65.43;;;21.90;61.50;;;;;;4801061;55;21000;-49
2022/11/18 14:32:15;;;;;;;84.30;64.97;;;21.80;61.50;;;;;;4752347;55;21068;-51
2022/11/18 14:37:16;;;;;;;84.82;65.62;;;21.80;61.40;;;;;;4844122;55;21531;-51
2022/11/18 14:42:17;;;;;;;80.53;64.15;;;21.80;62.00;;;;;;4710196;55;21044;-47
2022/11/18 14:47:28;;;;;;;80.90;64.55;;;21.80;61.30;;;;;;4766558;55;21015;-45
2022/11/18 14:52:29;;;;;;;78.35;62.95;;;21.80;61.40;;;;;;4876733;55;21023;-43
2022/11/18 14:57:29;;;;;;;79.25;61.45;;;21.80;61.30;;;;;;4897605;55;21479;-45
2022/11/18 15:02:30;;;;;;;78.03;62.88;;;21.80;61.30;;;;;;4694453;57;21545;-47
2022/11/18 15:07:31;;;;;;;79.78;62.53;;;21.80;61.30;;;;;;4944719;55;21075;-44
2022/11/18 15:12:32;;;;;;;75.93;62.05;;;21.80;61.20;;;;;;4779356;55;21032;-46
2022/11/18 15:17:33;;;;;;;81.32;63.22;;;21.80;61.20;;;;;;4980423;55;21043;-46
2022/11/18 15:22:34;;;;;;;75.25;60.38;;;21.80;61.20;;;;;;4914082;55;21015;-45
2022/11/18 15:27:35;;;;;;;78.55;61.60;;;21.80;61.20;;;;;;4985983;55;21076;-46
2022/11/18 15:32:35;;;;;;;76.85;61.47;;;21.80;61.10;;;;;;4694913;59;21052;-44
2022/11/18 15:37:36;;;;;;;78.80;62.30;;;21.80;61.10;;;;;;4805658;55;21103;-49
2022/11/18 15:42:37;;;;;;;77.45;60.63;;;21.80;61.10;;;;;;4762442;55;21552;-45
2022/11/18 15:47:38;;;;;;;77.12;60.80;;;21.80;61.10;;;;;;4693536;59;21088;-47
2022/11/18 15:52:38;;;;;;;78.18;60.85;;;21.80;61.10;;;;;;4886842;55;21035;-41
2022/11/18 15:57:39;;;;;;;80.18;62.15;;;21.80;61.10;;;;;;4693064;59;21043;-44
2022/11/18 16:02:40;;;;;;;76.22;62.03;;;21.80;61.00;;;;;;4825853;55;21024;-44
2022/11/18 16:07:41;;;;;;;76.18;62.03;;;21.70;60.90;;;;;;4751899;55;21008;-46
2022/11/18 16:12:48;;;;;;;77.32;61.60;;;21.70;60.90;;;;;;4789750;55;21487;-47
2022/11/18 16:17:48;;;;;;;73.70;60.17;;;21.80;60.90;;;;;;4764722;55;21590;-48
2022/11/18 16:22:50;;;;;;;76.90;62.62;;;21.70;60.90;;;;;;4764245;55;21092;-50
2022/11/18 16:27:52;;;;;;;75.85;60.58;;;21.70;60.80;;;;;;4694939;59;21506;-44
2022/11/18 16:32:52;;;;;;;77.80;61.13;;;21.80;60.80;;;;;;4694996;59;21086;-40
2022/11/18 16:37:54;;;;;;;77.20;61.65;;;21.70;60.80;;;;;;4719854;55;21016;-44
2022/11/18 16:42:54;;;;;;;76.00;59.78;;;21.70;61.40;;;;;;4694966;59;20996;-45
2022/11/18 16:47:55;;;;;;;77.70;61.85;;;21.70;60.70;;;;;;4817478;55;21502;-42
2022/11/18 16:52:57;;;;;;;74.90;60.40;;;21.70;60.80;;;;;;4752572;55;20984;-47
2022/11/18 16:57:57;;;;;;;72.22;60.58;;;21.70;60.70;;;;;;4694193;59;21588;-48
2022/11/18 17:03:00;;;;;;;77.80;60.72;;;21.70;61.20;;;;;;4699413;55;21044;-46
2022/11/18 17:08:01;;;;;;;76.37;61.08;;;21.70;60.70;;;;;;5030513;55;21023;-48
2022/11/18 17:13:02;;;;;;;74.72;60.97;;;21.70;60.60;;;;;;4712734;55;21000;-45
2022/11/18 17:18:02;;;;;;;79.10;63.83;;;21.70;60.60;;;;;;4821297;55;21037;-50
2022/11/18 17:23:03;;;;;;;73.72;59.47;;;21.70;60.60;;;;;;4694195;59;21485;-47
2022/11/18 17:28:04;;;;;;;76.87;61.60;;;21.70;60.50;;;;;;4850977;55;21493;-38
2022/11/18 17:33:06;;;;;;;77.72;62.22;;;21.70;60.50;;;;;;4728308;55;21108;-45
2022/11/18 17:38:07;;;;;;;75.93;61.78;;;21.70;60.50;;;;;;4830828;55;21544;-43
2022/11/18 17:43:07;;;;;;;81.82;64.60;;;21.70;60.60;;;;;;4719225;55;21000;-43
2022/11/18 17:48:08;;;;;;;75.28;60.15;;;21.70;61.10;;;;;;4876352;55;21004;-52
2022/11/18 17:53:09;;;;;;;76.95;61.88;;;21.70;60.50;;;;;;4922567;55;21534;-47
2022/11/18 17:58:11;;;;;;;77.05;61.22;;;21.70;60.40;;;;;;4817799;55;21088;-46
2022/11/18 18:03:11;;;;;;;78.00;63.42;;;21.70;60.40;;;;;;4795571;55;21024;-46
2022/11/18 18:08:12;;;;;;;76.78;61.88;;;21.70;60.30;;;;;;4694826;59;21562;-46
2022/11/18 18:18:32;;;;;;;75.80;61.67;;;21.70;60.30;;;;;;4693294;55;21118;-41
2022/11/18 18:23:34;;;;;;;77.00;60.75;;;21.70;60.30;;;;;;4842036;55;21028;-36
2022/11/18 18:28:36;;;;;;;83.05;63.78;;;21.70;60.30;;;;;;4755808;55;21482;-43
2022/11/18 18:33:41;;;;;;;76.07;60.45;;;21.70;60.30;;;;;;4815168;55;21004;-42
2022/11/18 18:38:42;;;;;;;79.87;63.55;;;21.70;60.20;;;;;;4774850;55;21040;-40
2022/11/18 18:43:44;;;;;;;80.72;64.45;;;21.70;60.30;;;;;;5169053;55;21572;-46
2022/11/18 18:48:45;;;;;;;83.28;65.60;;;21.70;60.20;;;;;;5169497;55;21536;-49
2022/11/18 18:53:46;;;;;;;82.18;64.28;;;21.70;60.20;;;;;;4770246;55;20988;-43
2022/11/18 18:58:47;;;;;;;80.40;63.53;;;21.70;60.20;;;;;;4798537;55;21079;-48
2022/11/18 19:03:53;;;;;;;84.28;66.53;;;21.70;60.10;;;;;;4796506;55;21522;-40
2022/11/18 19:08:55;;;;;;;81.97;66.03;;;21.70;60.10;;;;;;4694675;59;21096;-44
2022/11/18 19:14:00;;;;;;;84.53;68.37;;;21.70;60.10;;;;;;4893153;55;21052;-44
2022/11/18 19:19:02;;;;;;;81.80;65.32;;;21.70;60.10;;;;;;4781541;55;21032;-44
2022/11/18 19:24:04;;;;;;;84.85;66.07;;;21.70;60.10;;;;;;4850232;55;21007;-47
2022/11/18 19:29:05;;;;;;;82.15;65.75;;;21.60;60.00;;;;;;4695130;59;21004;-44
2022/11/18 19:34:05;;;;;;;82.10;64.65;;;21.70;60.00;;;;;;5064876;55;20999;-45
2022/11/18 19:39:06;;;;;;;86.60;68.22;;;21.60;59.90;;;;;;4783469;55;21573;-47
2022/11/18 19:44:07;;;;;;;84.13;66.68;;;21.70;60.00;;;;;;4850274;55;21012;-38
2022/11/18 19:49:08;;;;;;;86.28;68.28;;;21.60;59.90;;;;;;4908617;55;21071;-45
2022/11/18 19:54:09;;;;;;;83.37;66.95;;;21.70;59.90;;;;;;4714947;55;21016;-47
2022/11/18 19:59:11;;;;;;;85.32;66.90;;;21.60;59.90;;;;;;4826401;55;21008;-43
2022/11/18 20:04:12;;;;;;;86.30;68.10;;;21.60;59.80;;;;;;4793641;55;21100;-39
2022/11/18 20:09:14;;;;;;;88.65;69.43;;;21.70;59.90;;;;;;4945743;55;21028;-46
2022/11/18 20:14:15;;;;;;;87.55;69.40;;;21.60;59.80;;;;;;4865243;55;21032;-42
2022/11/18 20:19:17;;;;;;;85.97;67.10;;;21.60;59.80;;;;;;4739963;55;21509;-43
2022/11/18 20:24:18;;;;;;;85.28;66.05;;;21.60;59.70;;;;;;5079301;55;21012;-40
2022/11/18 20:29:21;;;;;;;84.53;66.87;;;21.60;59.70;;;;;;4817686;55;21024;-45
2022/11/18 20:34:22;;;;;;;82.30;65.62;;;21.60;59.70;;;;;;4700141;55;21071;-44
2022/11/18 20:39:23;;;;;;;84.43;65.78;;;21.60;59.70;;;;;;4740988;55;21490;-41
2022/11/18 20:44:24;;;;;;;79.22;63.78;;;21.60;59.70;;;;;;4847684;55;21501;-39
2022/11/18 20:49:25;;;;;;;81.87;64.18;;;21.60;59.70;;;;;;4695127;59;20993;-48
2022/11/18 20:54:26;;;;;;;81.82;63.50;;;21.60;59.60;;;;;;4864113;55;21043;-50
2022/11/18 20:59:27;;;;;;;80.07;63.90;;;21.60;59.60;;;;;;4796886;55;21052;-46
2022/11/18 21:04:27;;;;;;;79.20;62.30;;;21.60;59.50;;;;;;4781757;55;21151;-46
2022/11/18 21:09:31;;;;;;;78.40;62.13;;;21.60;59.50;;;;;;4694688;59;21454;-40
2022/11/18 21:14:32;;;;;;;76.90;60.40;;;21.60;59.50;;;;;;4933030;55;21502;-44
2022/11/18 21:19:33;;;;;;;78.93;61.55;;;21.60;59.60;;;;;;4753794;55;21012;-44
2022/11/18 21:24:34;;;;;;;74.62;57.25;;;21.60;59.50;;;;;;4725037;55;21036;-38
2022/11/18 21:29:35;;;;;;;76.82;58.97;;;21.60;59.50;;;;;;4990687;55;21487;-43
2022/11/18 21:34:35;;;;;;;71.47;56.67;;;21.60;59.50;;;;;;4694917;59;21020;-42
2022/11/18 21:39:36;;;;;;;70.68;56.45;;;21.60;59.40;;;;;;4695082;59;21004;-44
2022/11/18 21:44:37;;;;;;;73.28;58.65;;;21.60;59.50;;;;;;4751877;55;21004;-39
2022/11/18 21:49:38;;;;;;;65.95;54.47;;;21.60;59.50;;;;;;4694763;59;21015;-46
2022/11/18 21:54:39;;;;;;;71.55;56.75;;;21.60;59.30;;;;;;4694549;59;21068;-43
2022/11/18 21:59:40;;;;;;;66.37;52.42;;;21.60;59.30;;;;;;4694949;59;21454;-46
2022/11/18 22:04:53;;;;;;;68.60;55.30;;;21.60;59.20;;;;;;4918967;55;21099;-45
2022/11/18 22:09:54;;;;;;;69.05;54.22;;;21.60;59.30;;;;;;4835974;55;21585;-48
2022/11/18 22:14:55;;;;;;;67.53;53.67;;;21.60;59.30;;;;;;4702967;55;20993;-42
2022/11/18 22:19:55;;;;;;;67.57;52.22;;;21.60;59.30;;;;;;4859033;55;21019;-45
2022/11/18 22:24:56;;;;;;;63.03;50.38;;;21.60;59.20;;;;;;4768425;55;21056;-46
2022/11/18 22:29:57;;;;;;;63.55;51.20;;;21.60;59.30;;;;;;4798940;55;21083;-32
2022/11/18 22:34:58;;;;;;;62.33;50.45;;;21.60;59.20;;;;;;4781457;55;21040;-43
2022/11/18 22:39:58;;;;;;;63.70;51.05;;;21.60;59.10;;;;;;4695059;59;20996;-38
2022/11/18 22:44:59;;;;;;;61.47;49.80;;;21.60;59.30;;;;;;4748332;55;21063;-47
2022/11/18 22:50:00;;;;;;;61.95;50.22;;;21.50;59.10;;;;;;4695040;59;21035;-46
2022/11/18 22:55:01;;;;;;;65.60;50.83;;;21.60;59.10;;;;;;4890454;55;21043;-44
2022/11/18 23:00:04;;;;;;;60.17;47.45;;;21.60;59.10;;;;;;5169755;55;21528;-41
2022/11/18 23:05:06;;;;;;;59.25;48.80;;;21.60;59.00;;;;;;4865366;55;21040;-40
2022/11/18 23:10:08;;;;;;;61.72;49.00;;;21.50;59.00;;;;;;4737958;55;21455;-45
2022/11/18 23:15:08;;;;;;;59.30;47.53;;;21.60;59.00;;;;;;5113727;55;21068;-47
2022/11/18 23:20:10;;;;;;;56.72;46.85;;;21.60;59.00;;;;;;4695217;59;21079;-42
2022/11/18 23:25:11;;;;;;;56.90;45.38;;;21.60;59.00;;;;;;4745913;55;21092;-42
2022/11/18 23:30:12;;;;;;;55.78;45.72;;;21.60;59.00;;;;;;4938881;55;21012;-45
2022/11/18 23:35:13;;;;;;;55.95;45.88;;;21.50;58.90;;;;;;4741687;55;21549;-46
2022/11/18 23:40:15;;;;;;;58.10;46.80;;;21.60;59.00;;;;;;4835212;55;21024;-41
2022/11/18 23:45:16;;;;;;;53.60;43.17;;;21.50;58.90;;;;;;4694933;59;21000;-43
2022/11/18 23:50:17;;;;;;;57.20;45.30;;;21.60;58.90;;;;;;5005861;55;21534;-42
2022/11/18 23:55:17;;;;;;;56.35;44.70;;;21.50;58.90;;;;;;4921444;55;21001;-44
